Time;durP1;ratioP1;P1;durP2;ratioP2;P2;SDS_P1;SDS_P2;PMS_P1;PMS_P2;Temp;Humidity;BMP_temperature;BMP_pressure;BME280_temperature;BME280_humidity;BME280_pressure;Samples;Min_cycle;Max_cycle;Signal;HPM_P1;HPM_P2
2023/02/01 00:00:12;;;;;;;56.05;24.70;;;;;;;;;;1051350;28;20046;-76
2023/02/01 00:00:42;;;;;;;55.15;24.45;;;;;;;;;;1052584;28;20020;-76
2023/02/01 00:01:12;;;;;;;45.13;22.52;;;;;;;;;;1051610;28;20081;-76
2023/02/01 00:01:43;;;;;;;44.63;25.25;;;;;;;;;;1052588;28;20030;-76
2023/02/01 00:02:13;;;;;;;43.13;21.60;;;;;;;;;;1052395;28;20059;-76
2023/02/01 00:02:44;;;;;;;41.65;21.17;;;;;;;;;;1053492;28;20176;-76
2023/02/01 00:03:14;;;;;;;39.47;19.85;;;;;;;;;;1048306;28;20025;-76
2023/02/01 00:03:45;;;;;;;46.10;19.80;;;;;;;;;;1048222;28;20070;-75
2023/02/01 00:04:15;;;;;;;58.22;24.02;;;;;;;;;;1049020;28;20035;-76
2023/02/01 00:04:46;;;;;;;55.92;24.73;;;;;;;;;;1052599;28;20396;-76
2023/02/01 00:05:16;;;;;;;50.10;23.85;;;;;;;;;;1052605;28;20028;-75
2023/02/01 00:05:57;;;;;;;44.97;22.92;;;;;;;;;;1052543;28;20486;-75
2023/02/01 00:06:27;;;;;;;42.92;22.25;;;;;;;;;;1051735;28;20059;-75
2023/02/01 00:06:58;;;;;;;52.03;19.15;;;;;;;;;;1052551;28;20028;-75
2023/02/01 00:07:28;;;;;;;43.35;19.35;;;;;;;;;;1052817;28;20114;-75
2023/02/01 00:07:58;;;;;;;45.92;19.70;;;;;;;;;;1052385;28;20205;-75
2023/02/01 00:08:29;;;;;;;38.83;18.60;;;;;;;;;;1052454;28;20024;-76
2023/02/01 00:08:59;;;;;;;39.30;17.95;;;;;;;;;;1048213;28;20027;-76
2023/02/01 00:09:30;;;;;;;36.25;16.55;;;;;;;;;;1048389;28;20488;-76
2023/02/01 00:10:01;;;;;;;37.38;17.60;;;;;;;;;;1052467;28;20534;-76
2023/02/01 00:10:31;;;;;;;34.15;15.80;;;;;;;;;;1052473;28;20062;-76
2023/02/01 00:11:03;;;;;;;41.83;18.10;;;;;;;;;;1052396;28;20020;-76
2023/02/01 00:11:34;;;;;;;44.40;19.30;;;;;;;;;;1048425;28;20028;-75
2023/02/01 00:12:04;;;;;;;39.60;17.20;;;;;;;;;;1048248;28;20047;-76
2023/02/01 00:12:35;;;;;;;39.08;17.83;;;;;;;;;;1048595;28;20029;-76
2023/02/01 00:13:05;;;;;;;38.63;17.88;;;;;;;;;;1052393;28;20028;-76
2023/02/01 00:13:39;;;;;;;42.47;18.83;;;;;;;;;;1052480;28;20446;-75
2023/02/01 00:14:10;;;;;;;42.22;17.40;;;;;;;;;;1047976;28;20025;-76
2023/02/01 00:14:40;;;;;;;43.20;18.15;;;;;;;;;;1049029;28;20424;-76
2023/02/01 00:15:11;;;;;;;40.97;17.98;;;;;;;;;;1051318;28;20028;-76
2023/02/01 00:15:42;;;;;;;40.80;17.52;;;;;;;;;;1052607;28;20476;-76
2023/02/01 00:16:19;;;;;;;67.10;28.27;;;;;;;;;;1052669;28;20047;-76
2023/02/01 00:16:49;;;;;;;60.67;25.63;;;;;;;;;;1052301;28;20024;-76
2023/02/01 00:17:20;;;;;;;49.58;22.65;;;;;;;;;;1051908;28;20040;-76
2023/02/01 00:17:54;;;;;;;53.70;23.02;;;;;;;;;;1052488;28;20439;-76
2023/02/01 00:18:24;;;;;;;67.28;24.67;;;;;;;;;;1048156;28;20024;-76
2023/02/01 00:19:03;;;;;;;54.28;22.73;;;;;;;;;;1048910;28;20025;-75
2023/02/01 00:19:34;;;;;;;56.28;22.25;;;;;;;;;;1052369;28;20020;-76
2023/02/01 00:20:04;;;;;;;54.15;23.25;;;;;;;;;;1048747;28;20020;-75
2023/02/01 00:20:35;;;;;;;58.72;22.75;;;;;;;;;;1052347;28;20115;-75
2023/02/01 00:21:05;;;;;;;63.65;27.60;;;;;;;;;;1048214;28;20407;-76
2023/02/01 00:21:36;;;;;;;54.03;24.48;;;;;;;;;;1048330;28;20051;-76
2023/02/01 00:22:06;;;;;;;64.10;26.13;;;;;;;;;;1047969;28;20022;-75
2023/02/01 00:22:37;;;;;;;58.00;27.10;;;;;;;;;;1048304;28;20017;-75
2023/02/01 00:23:09;;;;;;;72.88;24.15;;;;;;;;;;1052423;28;20468;-76
2023/02/01 00:23:40;;;;;;;61.70;25.58;;;;;;;;;;1052460;28;20028;-76
2023/02/01 00:24:11;;;;;;;71.80;27.80;;;;;;;;;;1052608;28;20020;-76
2023/02/01 00:24:41;;;;;;;76.70;28.30;;;;;;;;;;1052764;28;20055;-76
2023/02/01 00:25:12;;;;;;;66.38;25.17;;;;;;;;;;1052641;28;20365;-75
2023/02/01 00:25:42;;;;;;;56.65;24.55;;;;;;;;;;1052849;28;20031;-75
2023/02/01 00:26:16;;;;;;;61.38;24.88;;;;;;;;;;1052683;28;20024;-75
2023/02/01 00:26:48;;;;;;;64.57;24.95;;;;;;;;;;1052369;28;20023;-75
2023/02/01 00:27:20;;;;;;;70.10;27.13;;;;;;;;;;1052470;28;20430;-76
2023/02/01 00:27:51;;;;;;;66.72;29.33;;;;;;;;;;1052005;28;20030;-76
2023/02/01 00:28:21;;;;;;;64.43;27.23;;;;;;;;;;1052423;28;20024;-76
2023/02/01 00:28:52;;;;;;;72.55;28.13;;;;;;;;;;1052311;28;20112;-75
2023/02/01 00:29:23;;;;;;;78.63;32.67;;;;;;;;;;1052458;28;20448;-76
2023/02/01 00:29:56;;;;;;;66.93;27.75;;;;;;;;;;1052121;28;20028;-76
2023/02/01 00:30:27;;;;;;;57.95;25.60;;;;;;;;;;1051506;28;20429;-75
2023/02/01 00:31:01;;;;;;;68.22;27.45;;;;;;;;;;1052778;28;20103;-75
2023/02/01 00:31:31;;;;;;;62.92;26.30;;;;;;;;;;1052754;28;20475;-75
2023/02/01 00:32:02;;;;;;;62.00;26.67;;;;;;;;;;1052756;28;20027;-76
2023/02/01 00:32:32;;;;;;;64.97;27.75;;;;;;;;;;1052728;28;20024;-76
2023/02/01 00:33:03;;;;;;;66.90;28.73;;;;;;;;;;1052323;28;20031;-76
2023/02/01 00:33:33;;;;;;;63.95;27.30;;;;;;;;;;1052435;28;20107;-76
2023/02/01 00:34:04;;;;;;;63.20;28.13;;;;;;;;;;1052400;28;20052;-76
2023/02/01 00:34:35;;;;;;;60.17;26.92;;;;;;;;;;1052329;28;20467;-76
2023/02/01 00:35:08;;;;;;;44.15;20.98;;;;;;;;;;1052714;28;20372;-76
2023/02/01 00:35:38;;;;;;;32.95;18.13;;;;;;;;;;1052871;28;20019;-76
2023/02/01 00:36:09;;;;;;;40.65;18.48;;;;;;;;;;1052604;28;20453;-76
2023/02/01 00:36:40;;;;;;;57.67;23.88;;;;;;;;;;1052850;28;20481;-76
2023/02/01 00:37:10;;;;;;;52.25;21.65;;;;;;;;;;1052776;28;20027;-76
2023/02/01 00:37:41;;;;;;;40.67;19.73;;;;;;;;;;1052782;28;20499;-76
2023/02/01 00:38:11;;;;;;;40.92;19.27;;;;;;;;;;1052272;28;20122;-76
2023/02/01 00:38:42;;;;;;;53.13;22.33;;;;;;;;;;1052505;28;20028;-76
2023/02/01 00:39:12;;;;;;;41.65;19.55;;;;;;;;;;1052402;28;20119;-76
2023/02/01 00:39:43;;;;;;;42.85;18.92;;;;;;;;;;1048424;28;20033;-75
2023/02/01 00:40:13;;;;;;;46.53;20.05;;;;;;;;;;1048089;28;20060;-76
2023/02/01 00:40:44;;;;;;;39.10;19.05;;;;;;;;;;1048274;28;20035;-76
2023/02/01 00:41:16;;;;;;;39.75;20.45;;;;;;;;;;1048285;28;20507;-76
2023/02/01 00:41:46;;;;;;;32.67;17.13;;;;;;;;;;1052379;28;20012;-76
2023/02/01 00:42:17;;;;;;;32.85;17.40;;;;;;;;;;1052716;28;20115;-76
2023/02/01 00:42:47;;;;;;;41.88;16.48;;;;;;;;;;1053271;28;20024;-76
2023/02/01 00:43:18;;;;;;;38.63;20.88;;;;;;;;;;1052785;28;20504;-75
2023/02/01 00:43:48;;;;;;;44.10;17.60;;;;;;;;;;1052714;28;20039;-76
2023/02/01 00:44:19;;;;;;;34.78;17.75;;;;;;;;;;1052236;28;20020;-76
2023/02/01 00:44:49;;;;;;;36.47;17.02;;;;;;;;;;1052130;28;20030;-76
2023/02/01 00:45:20;;;;;;;40.17;19.35;;;;;;;;;;1052734;28;20024;-76
2023/02/01 00:45:50;;;;;;;42.17;19.10;;;;;;;;;;1052269;28;20027;-76
2023/02/01 00:46:21;;;;;;;40.65;18.77;;;;;;;;;;1048135;28;20017;-76
2023/02/01 00:46:52;;;;;;;51.50;19.67;;;;;;;;;;1046035;28;20480;-76
2023/02/01 00:47:22;;;;;;;39.78;19.45;;;;;;;;;;1046346;28;20027;-76
2023/02/01 00:47:53;;;;;;;45.42;19.20;;;;;;;;;;1049819;28;20497;-76
2023/02/01 00:48:23;;;;;;;48.97;18.73;;;;;;;;;;1051752;28;20032;-76
2023/02/01 00:48:54;;;;;;;49.47;19.58;;;;;;;;;;1052726;28;20031;-76
2023/02/01 00:49:25;;;;;;;34.50;18.65;;;;;;;;;;1052644;28;20123;-76
2023/02/01 00:49:55;;;;;;;45.95;18.65;;;;;;;;;;1049228;28;20016;-76
2023/02/01 00:50:26;;;;;;;42.72;18.75;;;;;;;;;;1050245;28;20020;-76
2023/02/01 00:51:01;;;;;;;42.08;18.58;;;;;;;;;;1050279;28;20020;-76
2023/02/01 00:51:32;;;;;;;42.40;18.05;;;;;;;;;;1052289;28;20024;-76
2023/02/01 00:52:02;;;;;;;35.92;17.05;;;;;;;;;;1048398;28;20078;-76
2023/02/01 00:52:33;;;;;;;44.80;19.17;;;;;;;;;;1052330;28;20511;-76
2023/02/01 00:53:03;;;;;;;37.17;17.35;;;;;;;;;;1052324;28;20031;-76
2023/02/01 00:53:34;;;;;;;43.63;18.73;;;;;;;;;;1051694;28;20028;-76
2023/02/01 00:54:04;;;;;;;39.22;18.52;;;;;;;;;;1051517;28;20518;-76
2023/02/01 00:54:36;;;;;;;37.53;19.48;;;;;;;;;;1047497;28;20036;-76
2023/02/01 00:55:07;;;;;;;35.90;18.27;;;;;;;;;;1048202;28;20056;-76
2023/02/01 00:55:37;;;;;;;36.85;16.80;;;;;;;;;;1048541;28;20031;-76
2023/02/01 00:56:08;;;;;;;39.47;17.23;;;;;;;;;;1052259;28;20059;-76
2023/02/01 00:56:39;;;;;;;37.35;18.02;;;;;;;;;;1052713;28;20429;-76
2023/02/01 00:57:09;;;;;;;38.10;18.00;;;;;;;;;;1051933;28;20016;-75
2023/02/01 00:57:40;;;;;;;35.25;18.08;;;;;;;;;;1052333;28;20301;-76
2023/02/01 00:58:10;;;;;;;35.53;18.80;;;;;;;;;;1052574;28;20024;-75
2023/02/01 00:58:41;;;;;;;46.53;19.10;;;;;;;;;;1052656;28;20069;-75
2023/02/01 00:59:12;;;;;;;36.65;17.15;;;;;;;;;;1052099;28;20020;-76
2023/02/01 00:59:42;;;;;;;38.25;19.30;;;;;;;;;;1052341;28;20024;-76
2023/02/01 01:00:13;;;;;;;37.72;15.65;;;;;;;;;;1047960;28;20012;-75
2023/02/01 01:00:43;;;;;;;41.05;19.38;;;;;;;;;;1047872;28;20029;-76
2023/02/01 01:01:18;;;;;;;34.40;19.80;;;;;;;;;;1052227;28;20024;-76
2023/02/01 01:01:49;;;;;;;41.20;19.60;;;;;;;;;;1049772;28;20113;-76
2023/02/01 01:02:19;;;;;;;40.95;18.17;;;;;;;;;;1047892;28;20089;-76
2023/02/01 01:02:50;;;;;;;36.95;19.25;;;;;;;;;;1047895;28;20025;-75
2023/02/01 01:03:20;;;;;;;38.17;20.45;;;;;;;;;;1048226;28;20024;-76
2023/02/01 01:03:52;;;;;;;33.38;17.05;;;;;;;;;;1051992;28;20020;-76
2023/02/01 01:04:22;;;;;;;35.83;19.10;;;;;;;;;;1052540;28;20016;-76
2023/02/01 01:04:53;;;;;;;41.83;20.20;;;;;;;;;;1052485;28;20028;-76
2023/02/01 01:05:23;;;;;;;35.67;18.55;;;;;;;;;;1051345;28;20027;-76
2023/02/01 01:05:56;;;;;;;37.90;19.63;;;;;;;;;;1052533;28;20464;-76
2023/02/01 01:06:28;;;;;;;47.95;20.65;;;;;;;;;;1051981;28;20106;-76
2023/02/01 01:06:58;;;;;;;37.55;21.10;;;;;;;;;;1052000;28;20376;-76
2023/02/01 01:07:29;;;;;;;41.33;21.42;;;;;;;;;;1047899;28;20021;-76
2023/02/01 01:07:59;;;;;;;46.60;21.70;;;;;;;;;;1045939;28;20374;-76
2023/02/01 01:08:30;;;;;;;35.72;18.60;;;;;;;;;;1045972;28;20037;-76
2023/02/01 01:09:01;;;;;;;44.05;19.98;;;;;;;;;;1045962;28;20141;-76
2023/02/01 01:09:32;;;;;;;42.92;18.88;;;;;;;;;;1048287;28;20082;-76
2023/02/01 01:10:02;;;;;;;43.30;19.90;;;;;;;;;;1051338;28;20024;-76
2023/02/01 01:10:33;;;;;;;45.28;19.88;;;;;;;;;;1048104;28;20032;-76
2023/02/01 01:11:05;;;;;;;41.42;21.35;;;;;;;;;;1052267;28;20979;-76
2023/02/01 01:11:36;;;;;;;40.28;22.58;;;;;;;;;;1051602;28;20024;-76
2023/02/01 01:12:07;;;;;;;49.58;23.15;;;;;;;;;;1048242;28;20025;-76
2023/02/01 01:12:37;;;;;;;84.30;36.38;;;;;;;;;;1052184;28;20384;-76
2023/02/01 01:13:08;;;;;;;62.88;30.08;;;;;;;;;;1052107;28;20112;-75
2023/02/01 01:13:38;;;;;;;66.38;30.40;;;;;;;;;;1050127;28;20543;-76
2023/02/01 01:14:09;;;;;;;58.10;30.52;;;;;;;;;;1051349;28;20077;-76
2023/02/01 01:14:40;;;;;;;52.63;28.25;;;;;;;;;;1052587;28;20535;-76
2023/02/01 01:15:10;;;;;;;40.60;22.80;;;;;;;;;;1050757;28;20020;-76
2023/02/01 01:15:41;;;;;;;43.05;23.27;;;;;;;;;;1051534;28;20024;-76
2023/02/01 01:16:11;;;;;;;59.92;29.60;;;;;;;;;;1051745;28;20028;-76
2023/02/01 01:16:42;;;;;;;61.47;30.92;;;;;;;;;;1052205;28;20020;-76
2023/02/01 01:17:12;;;;;;;68.75;30.33;;;;;;;;;;1051074;28;20035;-76
2023/02/01 01:17:43;;;;;;;57.08;29.58;;;;;;;;;;1052834;28;20055;-76
2023/02/01 01:18:14;;;;;;;104.97;46.72;;;;;;;;;;1046271;28;20039;-76
2023/02/01 01:18:44;;;;;;;211.88;81.57;;;;;;;;;;1050640;28;20024;-76
2023/02/01 01:19:15;;;;;;;162.32;69.28;;;;;;;;;;1051089;28;20027;-76
2023/02/01 01:19:45;;;;;;;166.38;72.70;;;;;;;;;;1047275;28;20028;-76
2023/02/01 01:20:16;;;;;;;153.82;64.85;;;;;;;;;;1046655;28;20024;-76
2023/02/01 01:20:47;;;;;;;145.20;59.90;;;;;;;;;;1046610;28;20028;-76
2023/02/01 01:21:18;;;;;;;145.57;64.55;;;;;;;;;;1047225;28;20017;-76
2023/02/01 01:21:48;;;;;;;141.00;59.42;;;;;;;;;;1050708;28;20016;-76
2023/02/01 01:22:19;;;;;;;148.68;57.92;;;;;;;;;;1049461;28;20379;-76
2023/02/01 01:22:49;;;;;;;110.85;49.00;;;;;;;;;;1050963;28;20053;-76
2023/02/01 01:23:20;;;;;;;114.88;48.83;;;;;;;;;;1051613;28;20064;-75
2023/02/01 01:23:50;;;;;;;107.35;46.03;;;;;;;;;;1051622;28;20535;-75
2023/02/01 01:24:21;;;;;;;91.13;43.72;;;;;;;;;;1052331;28;20434;-76
2023/02/01 01:24:53;;;;;;;107.25;48.08;;;;;;;;;;1051468;28;20024;-75
2023/02/01 01:25:23;;;;;;;90.07;41.90;;;;;;;;;;1049894;28;20158;-74
2023/02/01 01:25:54;;;;;;;115.15;44.22;;;;;;;;;;1047477;28;20447;-77
2023/02/01 01:26:25;;;;;;;95.15;39.95;;;;;;;;;;1047919;28;20039;-75
2023/02/01 01:26:55;;;;;;;74.57;32.30;;;;;;;;;;1046821;28;20055;-76
2023/02/01 01:27:26;;;;;;;102.15;39.65;;;;;;;;;;1045027;28;20017;-75
2023/02/01 01:27:57;;;;;;;107.38;42.40;;;;;;;;;;1043366;28;20405;-75
2023/02/01 01:28:27;;;;;;;100.28;41.83;;;;;;;;;;1042243;28;20202;-76
2023/02/01 01:28:58;;;;;;;109.53;45.80;;;;;;;;;;1045336;28;20364;-76
2023/02/01 01:29:29;;;;;;;104.03;44.38;;;;;;;;;;1048897;28;20036;-76
2023/02/01 01:29:59;;;;;;;108.63;41.75;;;;;;;;;;1051281;28;20024;-76
2023/02/01 01:30:30;;;;;;;101.32;37.90;;;;;;;;;;1051148;28;20077;-76
2023/02/01 01:31:00;;;;;;;122.70;41.33;;;;;;;;;;1051306;28;20085;-75
2023/02/01 01:31:34;;;;;;;107.93;47.67;;;;;;;;;;1051706;28;20028;-77
2023/02/01 01:32:05;;;;;;;128.32;51.65;;;;;;;;;;1047830;28;20070;-76
2023/02/01 01:32:35;;;;;;;144.55;52.20;;;;;;;;;;1039187;28;20025;-77
2023/02/01 01:33:06;;;;;;;146.80;57.55;;;;;;;;;;1042983;28;20560;-76
2023/02/01 01:33:37;;;;;;;174.82;67.85;;;;;;;;;;1045679;28;20039;-75
2023/02/01 01:34:08;;;;;;;188.57;74.88;;;;;;;;;;1051522;28;20028;-76
2023/02/01 01:34:38;;;;;;;168.35;68.60;;;;;;;;;;1049925;28;20125;-76
2023/02/01 01:35:10;;;;;;;207.93;81.85;;;;;;;;;;1050138;28;20032;-76
2023/02/01 01:35:40;;;;;;;249.43;95.28;;;;;;;;;;1048548;28;20030;-76
2023/02/01 01:36:12;;;;;;;239.65;95.68;;;;;;;;;;1048064;28;20047;-76
2023/02/01 01:36:42;;;;;;;239.18;94.10;;;;;;;;;;1049125;28;20084;-76
2023/02/01 01:37:13;;;;;;;243.43;98.72;;;;;;;;;;1046269;28;20529;-76
2023/02/01 01:37:43;;;;;;;234.32;105.88;;;;;;;;;;1048993;28;20472;-75
2023/02/01 01:38:14;;;;;;;245.35;110.72;;;;;;;;;;1050780;28;20023;-76
2023/02/01 01:38:44;;;;;;;262.55;110.30;;;;;;;;;;1050802;28;20132;-76
2023/02/01 01:39:15;;;;;;;245.68;113.55;;;;;;;;;;1050723;28;21087;-76
2023/02/01 01:39:46;;;;;;;256.35;106.85;;;;;;;;;;1047855;28;20028;-76
2023/02/01 01:40:16;;;;;;;185.55;78.40;;;;;;;;;;1047701;28;20021;-76
2023/02/01 01:40:49;;;;;;;151.82;64.55;;;;;;;;;;1046217;28;20055;-76
2023/02/01 01:41:21;;;;;;;121.22;56.17;;;;;;;;;;1046820;28;20484;-75
2023/02/01 01:41:51;;;;;;;120.95;57.95;;;;;;;;;;1052130;28;20032;-76
2023/02/01 01:42:22;;;;;;;99.60;46.10;;;;;;;;;;1051661;28;20016;-76
2023/02/01 01:42:54;;;;;;;118.75;50.15;;;;;;;;;;1047435;28;20042;-75
2023/02/01 01:43:25;;;;;;;93.00;46.53;;;;;;;;;;1047314;28;20033;-76
2023/02/01 01:43:56;;;;;;;88.60;39.67;;;;;;;;;;1050770;28;20035;-76
2023/02/01 01:44:45;;;;;;;83.97;41.97;;;;;;;;;;1050745;28;20034;-76
2023/02/01 01:45:30;;;;;;;82.97;39.53;;;;;;;;;;1049990;28;20488;-76
2023/02/01 01:46:00;;;;;;;89.97;48.40;;;;;;;;;;1050134;28;20460;-76
2023/02/01 01:46:32;;;;;;;104.40;49.40;;;;;;;;;;1052087;28;20059;-76
2023/02/01 01:47:02;;;;;;;102.00;52.22;;;;;;;;;;1047274;28;20821;-76
2023/02/01 01:47:35;;;;;;;94.47;49.80;;;;;;;;;;1044846;28;20037;-76
2023/02/01 01:48:07;;;;;;;99.80;47.65;;;;;;;;;;1047079;28;20024;-76
2023/02/01 01:48:37;;;;;;;96.88;49.40;;;;;;;;;;1049400;28;20466;-76
2023/02/01 01:49:26;;;;;;;106.38;49.35;;;;;;;;;;1049581;28;20025;-76
2023/02/01 01:49:57;;;;;;;114.18;48.00;;;;;;;;;;1051008;28;20024;-76
2023/02/01 01:50:33;;;;;;;102.30;44.25;;;;;;;;;;1052216;28;20376;-76
2023/02/01 01:51:08;;;;;;;94.40;42.97;;;;;;;;;;1049187;28;20032;-76
2023/02/01 01:51:42;;;;;;;99.65;44.15;;;;;;;;;;1049405;28;20020;-76
2023/02/01 01:52:13;;;;;;;110.38;47.45;;;;;;;;;;1051100;28;20036;-76
2023/02/01 01:52:45;;;;;;;105.65;45.25;;;;;;;;;;1051653;28;20016;-76
2023/02/01 01:53:18;;;;;;;103.95;46.00;;;;;;;;;;1050110;28;20075;-76
2023/02/01 01:53:53;;;;;;;108.15;47.33;;;;;;;;;;1051731;28;20024;-75
2023/02/01 01:54:23;;;;;;;102.47;48.47;;;;;;;;;;1051704;28;20031;-76
2023/02/01 01:54:54;;;;;;;116.85;49.25;;;;;;;;;;1049756;28;20031;-76
2023/02/01 01:55:25;;;;;;;95.20;45.78;;;;;;;;;;1050748;28;20118;-76
2023/02/01 01:55:56;;;;;;;108.60;46.60;;;;;;;;;;1050335;28;20649;-76
2023/02/01 01:56:28;;;;;;;109.65;52.17;;;;;;;;;;1050963;28;20033;-76
2023/02/01 01:57:01;;;;;;;114.88;49.30;;;;;;;;;;1050072;28;20024;-76
2023/02/01 01:57:33;;;;;;;119.68;50.95;;;;;;;;;;1048187;28;20024;-76
2023/02/01 01:58:05;;;;;;;97.75;45.30;;;;;;;;;;1047614;28;20028;-76
2023/02/01 01:58:36;;;;;;;100.13;43.47;;;;;;;;;;1046918;28;20024;-76
2023/02/01 01:59:07;;;;;;;101.97;42.85;;;;;;;;;;1047438;28;20783;-76
2023/02/01 01:59:39;;;;;;;102.30;41.47;;;;;;;;;;1045490;28;20119;-76
2023/02/01 02:00:12;;;;;;;91.28;40.47;;;;;;;;;;1043426;28;20036;-76
2023/02/01 02:00:43;;;;;;;91.10;40.25;;;;;;;;;;1040607;28;20032;-76
2023/02/01 02:01:14;;;;;;;90.95;38.88;;;;;;;;;;1044820;28;20040;-76
2023/02/01 02:01:45;;;;;;;84.45;38.33;;;;;;;;;;1044146;28;20980;-76
2023/02/01 02:02:16;;;;;;;105.68;43.67;;;;;;;;;;1046898;28;20111;-76
2023/02/01 02:02:47;;;;;;;113.03;41.90;;;;;;;;;;1049303;28;20514;-76
2023/02/01 02:03:20;;;;;;;97.43;43.67;;;;;;;;;;1044250;28;20056;-76
2023/02/01 02:03:51;;;;;;;117.65;50.58;;;;;;;;;;1046311;28;20066;-76
2023/02/01 02:04:22;;;;;;;140.07;54.47;;;;;;;;;;1041285;28;20033;-76
2023/02/01 02:04:53;;;;;;;109.72;50.58;;;;;;;;;;1040680;28;20280;-76
2023/02/01 02:05:24;;;;;;;115.97;49.33;;;;;;;;;;1045134;28;20527;-76
2023/02/01 02:05:55;;;;;;;130.15;50.90;;;;;;;;;;1048864;28;20119;-76
2023/02/01 02:06:38;;;;;;;137.30;51.03;;;;;;;;;;1049819;28;20047;-76
2023/02/01 02:07:14;;;;;;;112.95;48.00;;;;;;;;;;1048483;28;20032;-76
2023/02/01 02:07:48;;;;;;;113.13;42.33;;;;;;;;;;1049824;28;20028;-76
2023/02/01 02:08:20;;;;;;;99.20;39.90;;;;;;;;;;1050729;28;20035;-76
2023/02/01 02:08:51;;;;;;;88.95;38.58;;;;;;;;;;1049341;28;20059;-76
2023/02/01 02:09:21;;;;;;;94.45;36.85;;;;;;;;;;1049462;28;20029;-77
2023/02/01 02:09:52;;;;;;;114.30;42.38;;;;;;;;;;1049844;28;20028;-76
2023/02/01 02:10:59;;;;;;;86.30;37.13;;;;;;;;;;1051637;28;20112;-76
2023/02/01 02:11:16;;;;;;;98.72;38.17;;;;;;;;;;1049861;28;20030;-76
2023/02/01 02:11:46;;;;;;;85.30;37.05;;;;;;;;;;1049844;28;20492;-76
2023/02/01 02:12:17;;;;;;;110.43;46.38;;;;;;;;;;1048094;28;20032;-77
2023/02/01 02:12:48;;;;;;;134.93;48.53;;;;;;;;;;1047936;28;20127;-77
2023/02/01 02:13:19;;;;;;;128.00;49.10;;;;;;;;;;1046634;28;20149;-75
2023/02/01 02:13:51;;;;;;;135.60;50.40;;;;;;;;;;1042498;28;20256;-75
2023/02/01 02:14:22;;;;;;;125.18;51.65;;;;;;;;;;1045467;28;20077;-75
2023/02/01 02:14:53;;;;;;;144.95;54.53;;;;;;;;;;1046735;28;20127;-76
2023/02/01 02:15:24;;;;;;;137.75;58.63;;;;;;;;;;1049589;28;20012;-75
2023/02/01 02:16:01;;;;;;;175.75;65.07;;;;;;;;;;1046386;28;20039;-75
2023/02/01 02:16:35;;;;;;;192.15;73.85;;;;;;;;;;1046925;28;20448;-75
2023/02/01 02:17:14;;;;;;;187.82;74.78;;;;;;;;;;1049542;28;20032;-75
2023/02/01 02:18:03;;;;;;;193.77;75.00;;;;;;;;;;1049209;28;20119;-75
2023/02/01 02:18:45;;;;;;;177.13;70.70;;;;;;;;;;1051011;28;20453;-75
2023/02/01 02:19:22;;;;;;;182.15;70.00;;;;;;;;;;1045329;28;20482;-75
2023/02/01 02:20:10;;;;;;;177.30;70.40;;;;;;;;;;1044223;28;20776;-76
2023/02/01 02:20:50;;;;;;;165.93;61.60;;;;;;;;;;1045819;28;20098;-75
2023/02/01 02:21:32;;;;;;;171.93;61.35;;;;;;;;;;1049588;28;20027;-76
2023/02/01 02:22:02;;;;;;;127.88;57.45;;;;;;;;;;1049520;28;20028;-76
2023/02/01 02:22:56;;;;;;;123.43;56.13;;;;;;;;;;1050926;28;20016;-75
2023/02/01 02:23:35;;;;;;;118.72;49.67;;;;;;;;;;1036514;28;20034;-77
2023/02/01 02:24:25;;;;;;;127.72;47.30;;;;;;;;;;1049850;28;20069;-76
2023/02/01 02:25:14;;;;;;;117.50;47.85;;;;;;;;;;1042687;28;20032;-75
2023/02/01 02:25:55;;;;;;;122.93;51.15;;;;;;;;;;1044485;28;20016;-76
2023/02/01 02:26:38;;;;;;;119.75;53.67;;;;;;;;;;1042947;28;20171;-76
2023/02/01 02:27:26;;;;;;;136.50;48.92;;;;;;;;;;1044938;28;20050;-76
2023/02/01 02:28:04;;;;;;;136.07;53.83;;;;;;;;;;1049501;28;20037;-76
2023/02/01 02:28:54;;;;;;;124.25;52.72;;;;;;;;;;1049551;28;20788;-76
2023/02/01 02:29:33;;;;;;;125.30;49.55;;;;;;;;;;1047519;28;20492;-76
2023/02/01 02:30:13;;;;;;;117.90;50.63;;;;;;;;;;1047339;28;20035;-76
2023/02/01 02:30:52;;;;;;;123.07;50.85;;;;;;;;;;1049472;28;20515;-76
2023/02/01 02:31:23;;;;;;;120.63;51.78;;;;;;;;;;1048600;28;20024;-76
2023/02/01 02:31:56;;;;;;;144.65;56.45;;;;;;;;;;1050397;28;20525;-76
2023/02/01 02:32:45;;;;;;;98.18;40.83;;;;;;;;;;1045307;28;20404;-76
2023/02/01 02:33:37;;;;;;;77.82;38.83;;;;;;;;;;1045928;28;20123;-76
2023/02/01 02:34:39;;;;;;;114.22;46.05;;;;;;;;;;1043419;28;20660;-77
2023/02/01 02:35:10;;;;;;;114.45;42.70;;;;;;;;;;1038156;28;20493;-76
2023/02/01 02:35:55;;;;;;;122.20;49.13;;;;;;;;;;1037856;28;20136;-76
2023/02/01 02:36:26;;;;;;;93.18;44.08;;;;;;;;;;1044564;28;20037;-76
2023/02/01 02:36:56;;;;;;;122.32;48.20;;;;;;;;;;1042664;28;20393;-76
2023/02/01 02:37:46;;;;;;;107.78;48.97;;;;;;;;;;1042033;28;20025;-76
2023/02/01 02:38:16;;;;;;;102.78;43.80;;;;;;;;;;1043714;28;20145;-76
2023/02/01 02:38:50;;;;;;;112.13;45.75;;;;;;;;;;1042589;28;20070;-75
2023/02/01 02:39:33;;;;;;;95.13;43.58;;;;;;;;;;1046764;28;20028;-76
2023/02/01 02:40:06;;;;;;;120.55;48.60;;;;;;;;;;1049469;28;20369;-76
2023/02/01 02:40:49;;;;;;;105.80;47.58;;;;;;;;;;1043685;28;20032;-75
2023/02/01 02:47:25;;;;;;;103.63;40.50;;;;;;;;;;1036989;28;20484;-78
2023/02/01 02:47:55;;;;;;;99.28;42.92;;;;;;;;;;1036331;28;20040;-76
2023/02/01 02:48:32;;;;;;;94.10;43.13;;;;;;;;;;1033729;28;20038;-77
2023/02/01 02:49:20;;;;;;;118.85;42.33;;;;;;;;;;1034425;28;20063;-76
2023/02/01 02:54:51;;;;;;;87.78;40.78;;;;;;;;;;1047253;28;20610;-76
2023/02/01 02:55:23;;;;;;;112.78;45.95;;;;;;;;;;1051439;28;20543;-76
2023/02/01 03:04:19;;;;;;;106.72;47.05;;;;;;;;;;1050065;28;20069;-75
2023/02/01 03:04:56;;;;;;;126.85;53.67;;;;;;;;;;1048847;28;20038;-76
2023/02/01 03:05:32;;;;;;;96.85;44.33;;;;;;;;;;1048066;28;20043;-75
2023/02/01 03:06:03;;;;;;;113.85;47.95;;;;;;;;;;1048064;28;20072;-76
2023/02/01 03:06:34;;;;;;;111.43;45.15;;;;;;;;;;1050187;28;20395;-75
2023/02/01 03:07:12;;;;;;;117.03;46.80;;;;;;;;;;1049783;28;20024;-75
2023/02/01 03:07:52;;;;;;;104.75;47.38;;;;;;;;;;1044891;28;20093;-75
2023/02/01 03:08:23;;;;;;;;;;;;;;;;;;1048244;28;20017;-77
2023/02/01 03:08:59;;;;;;;129.82;48.83;;;;;;;;;;1045607;28;19912;-76
2023/02/01 03:09:35;;;;;;;102.85;47.17;;;;;;;;;;1044424;28;20445;-76
2023/02/01 03:10:10;;;;;;;124.00;55.88;;;;;;;;;;1044786;28;20097;-76
2023/02/01 03:10:44;;;;;;;136.00;60.53;;;;;;;;;;1043952;28;20024;-76
2023/02/01 03:11:15;;;;;;;142.15;58.10;;;;;;;;;;1046759;28;20445;-76
2023/02/01 03:12:56;;;;;;;129.35;62.30;;;;;;;;;;1049842;28;20020;-77
2023/02/01 03:13:26;;;;;;;182.77;79.95;;;;;;;;;;1043912;28;20024;-75
2023/02/01 03:14:00;;;;;;;187.23;82.07;;;;;;;;;;1040665;28;20047;-76
2023/02/01 03:14:32;;;;;;;136.20;63.22;;;;;;;;;;1044044;28;20051;-76
2023/02/01 03:15:08;;;;;;;142.10;61.95;;;;;;;;;;1048844;28;20558;-75
2023/02/01 03:15:41;;;;;;;183.65;70.63;;;;;;;;;;1045778;28;20472;-75
2023/02/01 03:16:15;;;;;;;183.20;81.45;;;;;;;;;;1049386;28;20032;-76
2023/02/01 03:16:52;;;;;;;143.40;61.25;;;;;;;;;;1051000;28;20540;-75
2023/02/01 03:17:25;;;;;;;143.70;66.88;;;;;;;;;;1047690;28;20065;-75
2023/02/01 03:17:57;;;;;;;163.43;78.60;;;;;;;;;;1047287;28;20039;-76
2023/02/01 03:18:34;;;;;;;154.85;72.68;;;;;;;;;;1047163;28;20024;-76
2023/02/01 03:19:19;;;;;;;161.20;68.45;;;;;;;;;;1046811;28;20031;-75
2023/02/01 03:19:51;;;;;;;162.02;76.32;;;;;;;;;;1047994;28;20025;-76
2023/02/01 03:20:22;;;;;;;154.98;73.95;;;;;;;;;;1051060;28;20024;-76
2023/02/01 03:20:54;;;;;;;170.52;75.82;;;;;;;;;;1046302;28;20143;-76
2023/02/01 03:21:27;;;;;;;171.32;78.10;;;;;;;;;;1043339;28;20029;-76
2023/02/01 03:21:59;;;;;;;154.80;72.80;;;;;;;;;;1043423;28;20036;-76
2023/02/01 03:22:31;;;;;;;156.98;75.25;;;;;;;;;;1046114;28;20122;-76
2023/02/01 03:23:06;;;;;;;164.48;70.90;;;;;;;;;;1048473;28;20616;-76
2023/02/01 03:23:38;;;;;;;172.55;75.45;;;;;;;;;;1049136;28;20032;-76
2023/02/01 03:24:12;;;;;;;143.48;69.53;;;;;;;;;;1050844;28;20024;-76
2023/02/01 03:24:46;;;;;;;154.65;64.72;;;;;;;;;;1049588;28;20058;-76
2023/02/01 03:25:26;;;;;;;162.13;68.80;;;;;;;;;;1051013;28;20074;-76
2023/02/01 03:25:57;;;;;;;;;;;;;;;;;;1045984;28;20032;-76
2023/02/01 03:26:29;;;;;;;147.63;67.72;;;;;;;;;;1041302;28;19912;-75
2023/02/01 03:27:08;;;;;;;157.75;73.32;;;;;;;;;;1044016;28;20029;-76
2023/02/01 03:27:57;;;;;;;169.63;71.95;;;;;;;;;;1045765;28;20546;-78
2023/02/01 03:28:30;;;;;;;164.35;71.72;;;;;;;;;;1048466;28;20425;-77
2023/02/01 03:29:21;;;;;;;181.30;79.95;;;;;;;;;;1047274;28;20032;-76
2023/02/01 03:29:59;;;;;;;162.27;74.47;;;;;;;;;;1051470;28;20028;-77
2023/02/01 03:30:33;;;;;;;163.52;73.85;;;;;;;;;;1048205;28;20411;-77
2023/02/01 03:31:04;;;;;;;151.75;71.57;;;;;;;;;;1047781;28;20073;-77